Aérodrome :
LOGIN :

S'inscrire | Disclaimer

   EN    FR    IT 

 










Légende :    VFR   VFR Marginal   IFR   IFR Intensif   IFR Très Intensif
Visi : 
Plafond : 
>= 8 km
>= 3000ft
5 à 8 km
1000 à 3000 ft
1500m à 5 km
500 à 1000 ft
800 à 1500m
200 à 500 ft
< 800m
< 200 ft
Symboles :   Orages  Brouillard  Fortes neiges  Fortes précipitations  Vent > 20 kt
SIGMETs :   Divers  Orages  Givrage  Turbulence  Onde Orograph.  Cendres Volcan.






- Altitude de l'aérodrome : 685 ft
- Code IATA : VKO


UUWW - Vnukovo International

DERNIER METAR :
  • 180600Z 27005MPS 9999 SCT006 BKN034 08/07 Q1002 R24/290050 NOSIG

METARs EXPIRÉS :
  • 180530Z 24005MPS 9999 SCT004 BKN033 08/07 Q1002 R24/290050 NOSIG
  • 180500Z 24005MPS 6000 -SHRA SCT005 BKN040CB 08/07 Q1001 R24/290050 NOSIG
  • 180430Z 23005MPS 9999 SCT006 BKN040 08/07 Q1001 R24/290050 NOSIG
  • 180400Z 23005MPS 9999 SCT008 BKN040 08/07 Q1001 R24/290050 NOSIG
  • 180330Z 25006MPS 9999 SCT009 BKN040 08/06 Q1001 R24/290050 NOSIG

TAF TAF UUWW
Valide du 18 à 06h jusqu'au 19 à 06h UTC


180458Z 1806/1906 25005G10MPS 9999 FEW007 BKN016 TX12/1812Z TN06/1903Z
TEMPO 1806/1815 29008G15MPS 3100 -SHRA FEW004 BKN020CB
BECMG 1815/1817 31006G13MPS
TEMPO 1817/1906 -SHRA FEW003 BKN015CB



MET'MAP, la Météo Aéronautique d'un coup d'oeil ! - Copyright ORBIFLY Décembre 2007 - Disclaimer

ORBIFLY MET'MAP TEAM :

Programmation & Développement : Alexandra Zaïnal
Sur une idée originale de : Baudouin d'Aumeries
Assistance à la programmation : Marc-Olivier Méhu
Soutien technique & logistique : Manuel Goepfert

Contact : metmap@orbifly.com




SOURCES & CREDITS :

   NOAA